createdAt,value
2019-04-02T04:37:19.063Z,66.8
2019-04-02T04:38:31.222Z,67.9
2019-04-02T04:39:43.478Z,66.8
2019-04-02T04:40:55.732Z,66.7
2019-04-02T04:42:08.100Z,67
2019-04-02T04:43:20.335Z,66.9
2019-04-02T04:45:44.744Z,66.1
2019-04-02T04:46:56.981Z,65.9
2019-04-02T04:48:09.249Z,66.2
2019-04-02T04:49:21.531Z,66
2019-04-02T04:50:33.745Z,65.9
2019-04-02T04:51:46.008Z,64.9
2019-04-02T04:52:58.315Z,65.3
2019-04-02T04:54:10.488Z,65
2019-04-02T04:55:22.745Z,64.9
2019-04-02T04:56:35.085Z,64.9
2019-04-02T04:57:47.254Z,65.6
2019-04-02T04:58:59.778Z,65.6
2019-04-02T05:00:11.789Z,65.5
2019-04-02T05:01:24.297Z,64.6
2019-04-02T05:05:00.776Z,65.7
2019-04-02T05:06:13.074Z,65.4
2019-04-02T05:07:25.338Z,66
2019-04-02T05:08:37.526Z,65.5
2019-04-02T05:09:49.770Z,64.9
2019-04-02T05:11:02.023Z,65.4
2019-04-02T05:13:26.694Z,65.6
2019-04-02T05:14:38.806Z,65.3
2019-04-02T05:15:51.070Z,65.4
2019-04-02T05:17:03.366Z,65.5
2019-04-02T05:18:15.535Z,66.5
2019-04-02T05:19:27.895Z,65.5
2019-04-02T05:21:52.287Z,66.2
2019-04-02T05:23:04.578Z,66.8
2019-04-02T05:24:16.873Z,66.8
2019-04-02T05:25:29.055Z,67.2
2019-04-02T05:26:41.387Z,66.9
2019-04-02T05:27:53.572Z,67.7
2019-04-02T05:29:05.974Z,67.5
2019-04-02T05:30:18.056Z,66.6
2019-04-02T05:31:30.404Z,67.8
2019-04-02T05:32:42.948Z,66.9
2019-04-02T05:33:54.885Z,66.6
2019-04-02T05:35:07.223Z,67.3
2019-04-02T05:36:19.320Z,67.5
2019-04-02T05:37:31.581Z,66.3
2019-04-02T05:41:08.313Z,67
2019-04-02T05:42:20.564Z,67.6
2019-04-02T05:43:32.815Z,67.1
2019-04-02T05:44:45.078Z,66.7
2019-04-02T05:45:57.372Z,67.3
2019-04-02T05:48:21.880Z,67
2019-04-02T05:49:34.071Z,67.3
2019-04-02T05:50:46.395Z,67.5
2019-04-02T05:51:58.595Z,67.1
2019-04-02T05:53:10.925Z,67
2019-04-02T05:54:23.109Z,67
2019-04-02T05:55:35.440Z,66.2
2019-04-02T05:57:59.848Z,67.1
2019-04-02T05:59:12.299Z,67
2019-04-02T06:00:24.421Z,67.7
2019-04-02T06:01:36.606Z,67.2
2019-04-02T06:02:48.934Z,67.2
2019-04-02T06:04:01.125Z,66.8
2019-04-02T06:05:13.429Z,67.2
2019-04-02T06:06:25.600Z,67.1
2019-04-02T06:07:37.862Z,67.2
2019-04-02T06:08:50.237Z,67.7
2019-04-02T06:10:02.366Z,67.7
2019-04-02T06:11:14.635Z,67
2019-04-02T06:12:26.869Z,67.6
2019-04-02T06:13:39.131Z,68.1
2019-04-02T06:16:03.715Z,68.2
2019-04-02T06:18:28.251Z,68.3
2019-04-02T06:19:40.491Z,67.8
2019-04-02T06:20:52.644Z,68.2
2019-04-02T06:22:04.939Z,67.8
2019-04-02T06:23:17.131Z,68.3
2019-04-02T06:24:29.383Z,68.5
2019-04-02T06:25:41.649Z,68.4
2019-04-02T06:26:53.893Z,68.1
2019-04-02T06:28:06.153Z,67.8
2019-04-02T06:29:18.408Z,68.6
2019-04-02T06:30:30.642Z,68.6
2019-04-02T06:31:42.965Z,68.2
2019-04-02T06:36:31.905Z,69
2019-04-02T06:37:44.163Z,68.5
2019-04-02T06:38:56.495Z,68.8
2019-04-02T06:40:08.669Z,68.3
2019-04-02T06:41:20.945Z,68.5
2019-04-02T06:43:45.407Z,68.7
2019-04-02T06:44:57.783Z,69
2019-04-02T06:46:09.954Z,68.8
2019-04-02T06:47:22.193Z,68.8
2019-04-02T06:48:34.431Z,69
2019-04-02T06:49:46.782Z,69
2019-04-02T06:53:23.450Z,68.6
2019-04-02T06:54:35.692Z,68.4
2019-04-02T06:55:47.998Z,68.8
2019-04-02T06:57:04.445Z,68.8
2019-04-02T06:58:12.635Z,68.6
2019-04-02T06:59:24.708Z,68.5
2019-04-02T07:00:37.121Z,68.2
2019-04-02T07:01:49.261Z,68.5
2019-04-02T07:03:01.442Z,68.4
2019-04-02T07:04:13.703Z,68.4
2019-04-02T07:05:26.034Z,68.5
2019-04-02T07:06:38.397Z,68.2
2019-04-02T07:07:50.447Z,68.5
2019-04-02T07:10:14.960Z,68.4
2019-04-02T07:13:51.753Z,68.4
2019-04-02T07:15:04.000Z,68.3
2019-04-02T07:16:16.220Z,68.3
2019-04-02T07:17:28.519Z,68.4
2019-04-02T07:18:40.734Z,68.3
2019-04-02T07:19:52.983Z,68.5
2019-04-02T07:21:05.373Z,68.1
2019-04-02T07:22:18.241Z,68.6
2019-04-02T07:23:29.881Z,68.4
2019-04-02T07:24:42.081Z,68.2
2019-04-02T07:25:54.343Z,68
2019-04-02T07:30:43.361Z,67.9
2019-04-02T07:33:07.883Z,67.8
2019-04-02T07:34:20.022Z,67.9
2019-04-02T07:35:32.255Z,68
2019-04-02T07:36:44.572Z,68.1
2019-04-02T07:37:56.784Z,68.1
2019-04-02T07:39:09.093Z,68.2
2019-04-02T07:40:21.309Z,68
2019-04-02T07:41:33.526Z,68.1
2019-04-02T07:42:45.783Z,67.9
2019-04-02T07:43:58.183Z,67.9
2019-04-02T07:46:22.701Z,67.7
2019-04-02T07:47:34.788Z,67.7
2019-04-02T07:48:47.021Z,67.4
2019-04-02T07:49:59.274Z,67.3
2019-04-02T07:51:11.515Z,67.3
2019-04-02T07:52:23.813Z,67.6
2019-04-02T07:53:36.124Z,67.4
2019-04-02T07:54:48.405Z,66.8
2019-04-02T07:56:00.561Z,66.2
2019-04-02T07:57:12.803Z,66.1
2019-04-02T07:58:25.050Z,66
2019-04-02T07:59:37.285Z,65.6
2019-04-02T08:00:49.560Z,65.6
2019-04-02T08:02:01.863Z,65.5
2019-04-02T08:04:26.385Z,65.4
2019-04-02T08:05:38.622Z,65.6
2019-04-02T08:06:50.813Z,65.7
2019-04-02T08:08:03.077Z,66.2
2019-04-02T08:09:15.383Z,66.4
2019-04-02T08:10:27.565Z,65.5
2019-04-02T08:11:39.969Z,65.9
2019-04-02T08:12:52.064Z,66
2019-04-02T08:14:04.408Z,65.9
2019-04-02T08:15:16.581Z,66.2
2019-04-02T08:16:28.821Z,66.3
2019-04-02T08:17:41.169Z,66.3
2019-04-02T08:18:53.393Z,66.5
2019-04-02T08:20:05.751Z,66.2
2019-04-02T08:22:30.144Z,65.5
2019-04-02T08:23:42.437Z,65.3
2019-04-02T08:24:54.672Z,65.5
2019-04-02T08:26:06.958Z,65.5
2019-04-02T08:27:19.123Z,64.9
2019-04-02T08:28:31.462Z,64.5
2019-04-02T08:29:46.769Z,64.4
2019-04-02T08:30:55.869Z,64.3
2019-04-02T08:32:08.107Z,63.9
2019-04-02T08:33:20.443Z,63.5
2019-04-02T08:34:32.598Z,62.6
2019-04-02T08:35:44.880Z,62.4
2019-04-02T08:36:57.106Z,62.1
2019-04-02T08:38:09.364Z,60.9
2019-04-02T08:41:48.322Z,60.4
2019-04-02T08:43:01.509Z,61
2019-04-02T08:44:10.665Z,61.4
2019-04-02T08:46:35.246Z,61.1
2019-04-02T08:47:47.373Z,61.4
2019-04-02T08:48:59.619Z,62
2019-04-02T08:50:11.873Z,61.5
2019-04-02T08:51:24.129Z,60.7
2019-04-02T08:52:36.434Z,60.9
2019-04-02T08:53:48.665Z,60.7
2019-04-02T08:56:13.138Z,60.7
2019-04-02T08:58:37.664Z,60.9
2019-04-02T08:59:49.921Z,60.7
2019-04-02T09:01:02.146Z,60.8
2019-04-02T09:02:14.494Z,61.2
2019-04-02T09:04:38.906Z,61.9
2019-04-02T09:07:04.819Z,60.9
2019-04-02T09:08:15.837Z,60.9
2019-04-02T09:09:27.935Z,60.7
2019-04-02T09:10:40.162Z,60.6
2019-04-02T09:11:52.418Z,60.8
2019-04-02T09:13:04.765Z,60.8
2019-04-02T09:14:17.135Z,60.7
2019-04-02T09:17:53.687Z,61.1
2019-04-02T09:19:06.059Z,61.5
2019-04-02T09:20:18.190Z,62.2
2019-04-02T09:21:30.428Z,61.2
2019-04-02T09:22:42.670Z,61.1
2019-04-02T09:23:54.941Z,61
2019-04-02T09:25:07.200Z,61.7
2019-04-02T09:26:19.425Z,61.8
2019-04-02T09:27:31.672Z,61.9
2019-04-02T09:28:44.062Z,61.8
2019-04-02T09:29:56.213Z,61.8
2019-04-02T09:31:08.466Z,61.8
2019-04-02T09:32:20.699Z,62.4
2019-04-02T09:34:45.465Z,60.3
2019-04-02T09:35:57.587Z,60.4
2019-04-02T09:37:09.711Z,60.5
2019-04-02T09:38:22.095Z,60.9
2019-04-02T09:39:34.232Z,59.7
2019-04-02T09:40:46.456Z,59.2
2019-04-02T09:43:11.062Z,58.6
2019-04-02T09:44:23.222Z,57.7
2019-04-02T09:45:35.484Z,57.1
2019-04-02T09:46:48.903Z,56.8
2019-04-02T09:48:00.046Z,57.1
2019-04-02T09:49:12.271Z,57.3
2019-04-02T09:50:24.569Z,57.3
2019-04-02T09:52:48.996Z,57.6
2019-04-02T09:55:13.564Z,57.8
2019-04-02T09:56:25.813Z,58.1
2019-04-02T09:57:37.976Z,58.3
2019-04-02T09:58:50.352Z,58.5
2019-04-02T10:00:02.668Z,58.9
2019-04-02T10:01:14.811Z,58.9
2019-04-02T10:02:26.987Z,59.1
2019-04-02T10:03:39.267Z,58.6
2019-04-02T10:04:51.689Z,58.3
2019-04-02T10:06:03.992Z,57.7
2019-04-02T10:07:16.007Z,57
2019-04-02T10:08:28.264Z,56.8
2019-04-02T10:10:52.766Z,55.9
2019-04-02T10:12:05.056Z,56.5
2019-04-02T10:13:17.243Z,56.2
2019-04-02T10:14:29.584Z,56.4
2019-04-02T10:15:41.769Z,55.5
2019-04-02T10:16:54.042Z,55.2
2019-04-02T10:18:06.351Z,54.9
2019-04-02T10:19:18.633Z,54.7
2019-04-02T10:20:30.794Z,54.4
2019-04-02T10:21:43.177Z,54.5
2019-04-02T10:22:55.364Z,54.3
2019-04-02T10:24:07.596Z,53.3
2019-04-02T10:25:19.845Z,53.3
2019-04-02T10:26:32.176Z,53.1
2019-04-02T10:28:56.537Z,52.7
2019-04-02T10:30:08.965Z,51.6
2019-04-02T10:31:21.043Z,50.3
2019-04-02T10:32:33.382Z,49
2019-04-02T10:33:45.527Z,47.9
2019-04-02T10:34:57.859Z,48.4
2019-04-02T10:36:10.078Z,48.6
2019-04-02T10:37:22.297Z,49.1
2019-04-02T10:38:34.536Z,49.4
2019-04-02T10:39:46.916Z,50.3
2019-04-02T10:40:59.074Z,50
2019-04-02T10:42:11.308Z,50.4
2019-04-02T10:43:23.583Z,50.6
2019-04-02T10:44:35.811Z,50.9
2019-04-02T10:47:00.319Z,51.3
2019-04-02T10:48:12.579Z,51.7
2019-04-02T10:50:37.206Z,51.4
2019-04-02T10:51:49.311Z,50.5
2019-04-02T10:53:01.593Z,51.5
2019-04-02T10:54:13.815Z,50.6
2019-04-02T10:55:26.131Z,50.5
2019-04-02T10:56:38.337Z,51.7
2019-04-02T10:57:50.755Z,49.9
2019-04-02T10:59:02.851Z,49.9
2019-04-02T11:00:18.692Z,50.6
2019-04-02T11:01:27.327Z,51.1
2019-04-02T11:02:39.601Z,50.6
2019-04-02T11:05:04.629Z,51.9
2019-04-02T11:06:16.421Z,51.7
2019-04-02T11:07:28.674Z,50.5
2019-04-02T11:09:53.115Z,49.6
2019-04-02T11:11:06.878Z,49.9
2019-04-02T11:12:18.538Z,50.6
2019-04-02T11:13:29.855Z,51.8
2019-04-02T11:14:42.132Z,52.5
2019-04-02T11:15:54.466Z,53.3
2019-04-02T11:17:06.615Z,53.3
2019-04-02T11:18:20.244Z,52.7
2019-04-02T11:19:31.100Z,53
2019-04-02T11:20:43.354Z,53.2
2019-04-02T11:23:07.990Z,53.6
2019-04-02T11:24:20.184Z,53.5
2019-04-02T11:25:32.460Z,54.6
2019-04-02T11:26:44.684Z,54.3
2019-04-02T11:27:56.895Z,55.6
2019-04-02T11:29:09.124Z,54.4
2019-04-02T11:31:33.642Z,53.4
2019-04-02T11:32:45.882Z,53.5
2019-04-02T11:33:58.131Z,53.4
2019-04-02T11:35:10.368Z,53.5
2019-04-02T11:36:22.802Z,54.1
2019-04-02T11:37:34.888Z,53.4
2019-04-02T11:38:47.243Z,54.4
2019-04-02T11:41:11.706Z,53.5
2019-04-02T11:42:23.899Z,53.6
2019-04-02T11:43:36.140Z,54.4
2019-04-02T11:44:48.381Z,55.3
2019-04-02T11:46:00.734Z,56
2019-04-02T11:47:13.086Z,56.2
2019-04-02T11:48:25.186Z,56
2019-04-02T11:49:37.505Z,57
2019-04-02T11:50:49.754Z,59.3
2019-04-02T11:52:01.905Z,59.7
2019-04-02T11:54:26.492Z,63.1
2019-04-02T11:55:38.680Z,63.1
2019-04-02T11:56:50.953Z,63.5
2019-04-02T12:00:27.680Z,63.5
2019-04-02T12:01:39.955Z,63.1
2019-04-02T12:02:52.199Z,63.9
2019-04-02T12:04:04.433Z,63.4
2019-04-02T12:05:16.745Z,63.8
2019-04-02T12:06:28.940Z,63.8
2019-04-02T12:07:41.236Z,65.1
2019-04-02T12:08:53.481Z,64.5
2019-04-02T12:11:18.045Z,65.2
2019-04-02T12:12:30.198Z,65.6
2019-04-02T12:13:42.467Z,64.3
2019-04-02T12:18:31.551Z,63
2019-04-02T12:19:43.867Z,62.6
2019-04-02T12:22:08.278Z,61.6
2019-04-02T12:23:20.469Z,61.6
2019-04-02T12:24:32.822Z,61.3
2019-04-02T12:25:44.975Z,61.1
2019-04-02T12:26:57.231Z,61.1
2019-04-02T12:29:21.826Z,60.5
2019-04-02T12:30:33.993Z,60.3
2019-04-02T12:31:49.537Z,60.3
2019-04-02T12:33:02.370Z,60.2
2019-04-02T12:35:23.006Z,60.7
2019-04-02T12:36:35.392Z,61
2019-04-02T12:37:47.580Z,61.3
2019-04-02T12:40:12.061Z,60
2019-04-02T12:41:24.269Z,60.8
2019-04-02T12:42:36.538Z,61.4
2019-04-02T12:43:48.868Z,61.8
2019-04-02T12:45:00.994Z,62.4
2019-04-02T12:46:13.262Z,62.7
2019-04-02T12:47:25.508Z,62.8
2019-04-02T12:48:37.761Z,62.8
2019-04-02T12:49:50.005Z,63.3
2019-04-02T12:51:02.268Z,63.9
2019-04-02T12:53:26.940Z,64.6
2019-04-02T12:54:39.063Z,65.1
2019-04-02T12:55:51.342Z,64.6
2019-04-02T12:57:03.545Z,65
2019-04-02T12:59:28.034Z,65.8
2019-04-02T13:00:40.434Z,66.3
2019-04-02T13:01:52.537Z,66.1
2019-04-02T13:03:04.842Z,66.5
2019-04-02T13:04:17.045Z,66.9
2019-04-02T13:05:29.313Z,66.4
2019-04-02T13:06:41.705Z,66.6
2019-04-02T13:07:53.815Z,66.5
2019-04-02T13:09:06.035Z,66.5
2019-04-02T13:11:30.617Z,66.6
2019-04-02T13:12:42.823Z,66.5
2019-04-02T13:13:55.216Z,66.9
2019-04-02T13:15:07.356Z,66.4
2019-04-02T13:16:19.628Z,66.6
2019-04-02T13:17:31.843Z,67.2
2019-04-02T13:18:44.070Z,66.1
2019-04-02T13:19:56.418Z,67
2019-04-02T13:21:08.669Z,66.4
2019-04-02T13:22:20.820Z,66.5
2019-04-02T13:23:33.172Z,65.7
2019-04-02T13:24:45.329Z,65.6
2019-04-02T13:25:57.583Z,66.4
2019-04-02T13:27:09.872Z,65.7
2019-04-02T13:29:34.386Z,65.6
2019-04-02T13:30:46.658Z,67.3
2019-04-02T13:31:58.895Z,67
2019-04-02T13:33:11.180Z,66.3
2019-04-02T13:34:23.342Z,67.1
2019-04-02T13:35:36.087Z,66.6
2019-04-02T13:38:00.166Z,66.9
2019-04-02T13:39:12.393Z,66.9
2019-04-02T13:40:24.593Z,67
2019-04-02T13:42:49.131Z,67
2019-04-02T13:44:01.384Z,67
2019-04-02T13:45:13.613Z,67
2019-04-02T13:47:38.132Z,67.1
2019-04-02T13:48:50.454Z,67.2
2019-04-02T13:50:02.632Z,67
2019-04-02T13:52:27.243Z,66.8
2019-04-02T13:53:39.409Z,67
2019-04-02T13:54:51.687Z,67
2019-04-02T13:56:03.895Z,66.7
2019-04-02T13:57:16.374Z,66.8
2019-04-02T13:59:40.748Z,66.4
2019-04-02T14:00:53.000Z,66.6
2019-04-02T14:02:05.265Z,66.7
2019-04-02T14:03:17.454Z,66.8
2019-04-02T14:05:41.910Z,66.7
2019-04-02T14:06:54.139Z,66.7
2019-04-02T14:08:06.522Z,66.2
2019-04-02T14:09:18.800Z,66.6
2019-04-02T14:10:30.919Z,66.8
2019-04-02T14:11:43.203Z,66.3
2019-04-02T14:12:55.388Z,66.6
2019-04-02T14:14:07.734Z,66.3
2019-04-02T14:15:19.911Z,66.8
2019-04-02T14:16:32.185Z,66.6
2019-04-02T14:17:44.487Z,66.6
2019-04-02T14:18:56.843Z,66.6
2019-04-02T14:20:08.905Z,66.5
2019-04-02T14:21:21.389Z,66.1
2019-04-02T14:23:45.656Z,64
2019-04-02T14:24:57.957Z,64.8
2019-04-02T14:26:10.216Z,64.1
2019-04-02T14:27:22.466Z,64.1
2019-04-02T14:28:34.639Z,58.5
2019-04-02T14:29:46.902Z,58.5
2019-04-02T14:30:59.322Z,62.5
2019-04-02T14:33:23.655Z,60.4
2019-04-02T14:34:35.965Z,57
2019-04-02T14:35:48.180Z,57
2019-04-02T14:37:00.562Z,57.3
2019-04-02T14:38:12.710Z,59.9
2019-04-02T14:39:24.917Z,58.1
2019-04-02T14:41:49.394Z,59.3
2019-04-02T14:43:01.651Z,52.6
2019-04-02T14:44:13.911Z,49.4
2019-04-02T14:45:26.199Z,48.8
2019-04-02T14:46:38.393Z,45.2
2019-04-02T14:47:50.652Z,44.8
2019-04-02T14:49:02.984Z,47.6
2019-04-02T14:50:15.411Z,45.1
2019-04-02T14:51:27.381Z,44.8
2019-04-02T14:52:39.745Z,43.1
2019-04-02T14:53:52.011Z,43.8
2019-04-02T14:55:04.168Z,49.4
2019-04-02T14:56:16.583Z,45.2
2019-04-02T14:57:28.644Z,37.3
2019-04-02T14:59:53.138Z,41.3
2019-04-02T15:01:05.465Z,39.3
2019-04-02T15:02:17.639Z,40.2
2019-04-02T15:04:42.143Z,38.8
2019-04-02T15:05:54.379Z,41.5
2019-04-02T15:07:06.648Z,41.4
2019-04-02T15:08:18.967Z,39
2019-04-02T15:09:31.172Z,39.3
2019-04-02T15:10:43.398Z,34.7
2019-04-02T15:11:55.721Z,38.8
2019-04-02T15:13:07.889Z,41.7
2019-04-02T15:14:20.153Z,37.8
